sensor_id;sensor_type;location;lat;lon;timestamp;P1;durP1;ratioP1;P2;durP2;ratioP2
61764;SDS011;50188;48.114;-1.388;2022-09-03T00:02:44;6.35;;;5.40;;
61764;SDS011;50188;48.114;-1.388;2022-09-03T00:05:31;19.70;;;6.30;;
61764;SDS011;50188;48.114;-1.388;2022-09-03T00:08:24;8.23;;;5.40;;
61764;SDS011;50188;48.114;-1.388;2022-09-03T00:11:00;4.97;;;4.68;;
61764;SDS011;50188;48.114;-1.388;2022-09-03T00:13:44;4.28;;;3.95;;
61764;SDS011;50188;48.114;-1.388;2022-09-03T00:16:17;4.60;;;4.28;;
61764;SDS011;50188;48.114;-1.388;2022-09-03T00:18:46;4.43;;;4.13;;
61764;SDS011;50188;48.114;-1.388;2022-09-03T00:21:19;4.20;;;4.00;;
61764;SDS011;50188;48.114;-1.388;2022-09-03T00:23:50;4.97;;;4.35;;
61764;SDS011;50188;48.114;-1.388;2022-09-03T00:26:19;6.32;;;4.70;;
61764;SDS011;50188;48.114;-1.388;2022-09-03T00:28:55;6.07;;;4.50;;
61764;SDS011;50188;48.114;-1.388;2022-09-03T00:31:29;8.05;;;5.30;;
61764;SDS011;50188;48.114;-1.388;2022-09-03T00:34:23;4.93;;;4.63;;
61764;SDS011;50188;48.114;-1.388;2022-09-03T00:36:55;4.88;;;4.47;;
61764;SDS011;50188;48.114;-1.388;2022-09-03T00:39:22;5.85;;;4.88;;
61764;SDS011;50188;48.114;-1.388;2022-09-03T00:45:02;6.83;;;5.20;;
61764;SDS011;50188;48.114;-1.388;2022-09-03T00:47:55;6.95;;;5.60;;
61764;SDS011;50188;48.114;-1.388;2022-09-03T00:50:44;6.47;;;5.93;;
61764;SDS011;50188;48.114;-1.388;2022-09-03T00:53:41;5.55;;;5.15;;
61764;SDS011;50188;48.114;-1.388;2022-09-03T00:56:31;7.03;;;6.55;;
61764;SDS011;50188;48.114;-1.388;2022-09-03T00:59:31;8.75;;;8.05;;
61764;SDS011;50188;48.114;-1.388;2022-09-03T01:02:20;9.02;;;8.23;;
61764;SDS011;50188;48.114;-1.388;2022-09-03T01:05:10;6.68;;;6.18;;
61764;SDS011;50188;48.114;-1.388;2022-09-03T01:07:53;7.50;;;6.90;;
61764;SDS011;50188;48.114;-1.388;2022-09-03T01:10:50;6.13;;;5.57;;
61764;SDS011;50188;48.114;-1.388;2022-09-03T01:13:52;7.22;;;6.55;;
61764;SDS011;50188;48.114;-1.388;2022-09-03T01:16:48;6.10;;;5.60;;
61764;SDS011;50188;48.114;-1.388;2022-09-03T01:19:48;6.47;;;5.43;;
61764;SDS011;50188;48.114;-1.388;2022-09-03T01:22:40;8.43;;;7.65;;
61764;SDS011;50188;48.114;-1.388;2022-09-03T01:31:15;6.45;;;5.97;;
61764;SDS011;50188;48.114;-1.388;2022-09-03T01:34:24;7.30;;;6.78;;
61764;SDS011;50188;48.114;-1.388;2022-09-03T01:37:24;7.57;;;6.97;;
61764;SDS011;50188;48.114;-1.388;2022-09-03T01:40:09;8.73;;;8.05;;
61764;SDS011;50188;48.114;-1.388;2022-09-03T01:45:45;8.07;;;7.47;;
61764;SDS011;50188;48.114;-1.388;2022-09-03T01:48:31;8.43;;;7.82;;
61764;SDS011;50188;48.114;-1.388;2022-09-03T01:51:21;8.20;;;7.60;;
61764;SDS011;50188;48.114;-1.388;2022-09-03T01:53:59;9.95;;;8.60;;
61764;SDS011;50188;48.114;-1.388;2022-09-03T01:57:13;8.73;;;8.00;;
61764;SDS011;50188;48.114;-1.388;2022-09-03T01:59:54;10.43;;;9.65;;
61764;SDS011;50188;48.114;-1.388;2022-09-03T02:02:26;10.57;;;9.60;;
61764;SDS011;50188;48.114;-1.388;2022-09-03T02:05:03;10.73;;;9.82;;
61764;SDS011;50188;48.114;-1.388;2022-09-03T02:07:41;9.00;;;7.80;;
61764;SDS011;50188;48.114;-1.388;2022-09-03T02:10:11;8.52;;;7.93;;
61764;SDS011;50188;48.114;-1.388;2022-09-03T02:12:39;12.52;;;8.13;;
61764;SDS011;50188;48.114;-1.388;2022-09-03T02:15:13;8.98;;;8.20;;
61764;SDS011;50188;48.114;-1.388;2022-09-03T02:17:41;13.25;;;8.50;;
61764;SDS011;50188;48.114;-1.388;2022-09-03T02:20:10;9.48;;;8.77;;
61764;SDS011;50188;48.114;-1.388;2022-09-03T02:22:40;8.75;;;8.05;;
61764;SDS011;50188;48.114;-1.388;2022-09-03T02:25:07;8.57;;;7.88;;
61764;SDS011;50188;48.114;-1.388;2022-09-03T02:27:34;8.02;;;7.22;;
61764;SDS011;50188;48.114;-1.388;2022-09-03T02:30:02;9.10;;;8.40;;
61764;SDS011;50188;48.114;-1.388;2022-09-03T02:32:28;9.95;;;6.93;;
61764;SDS011;50188;48.114;-1.388;2022-09-03T02:34:54;8.23;;;7.53;;
61764;SDS011;50188;48.114;-1.388;2022-09-03T02:37:21;10.20;;;9.20;;
61764;SDS011;50188;48.114;-1.388;2022-09-03T02:39:47;11.07;;;9.52;;
61764;SDS011;50188;48.114;-1.388;2022-09-03T02:42:12;18.77;;;10.25;;
61764;SDS011;50188;48.114;-1.388;2022-09-03T02:44:43;12.60;;;10.43;;
61764;SDS011;50188;48.114;-1.388;2022-09-03T02:47:14;14.43;;;10.73;;
61764;SDS011;50188;48.114;-1.388;2022-09-03T02:49:39;13.35;;;12.00;;
61764;SDS011;50188;48.114;-1.388;2022-09-03T02:52:08;13.65;;;12.40;;
61764;SDS011;50188;48.114;-1.388;2022-09-03T02:54:36;13.30;;;12.02;;
61764;SDS011;50188;48.114;-1.388;2022-09-03T02:57:06;12.95;;;11.85;;
61764;SDS011;50188;48.114;-1.388;2022-09-03T02:59:33;13.20;;;12.10;;
61764;SDS011;50188;48.114;-1.388;2022-09-03T03:01:59;14.75;;;12.10;;
61764;SDS011;50188;48.114;-1.388;2022-09-03T03:04:25;13.73;;;12.40;;
61764;SDS011;50188;48.114;-1.388;2022-09-03T03:06:51;12.52;;;11.52;;
61764;SDS011;50188;48.114;-1.388;2022-09-03T03:09:17;12.13;;;11.13;;
61764;SDS011;50188;48.114;-1.388;2022-09-03T03:11:43;11.45;;;10.38;;
61764;SDS011;50188;48.114;-1.388;2022-09-03T03:14:09;12.10;;;11.10;;
61764;SDS011;50188;48.114;-1.388;2022-09-03T03:16:34;12.13;;;11.18;;
61764;SDS011;50188;48.114;-1.388;2022-09-03T03:19:00;14.02;;;12.68;;
61764;SDS011;50188;48.114;-1.388;2022-09-03T03:21:26;11.77;;;10.90;;
61764;SDS011;50188;48.114;-1.388;2022-09-03T03:23:52;15.50;;;14.00;;
61764;SDS011;50188;48.114;-1.388;2022-09-03T03:26:19;16.42;;;14.40;;
61764;SDS011;50188;48.114;-1.388;2022-09-03T03:28:46;22.05;;;15.10;;
61764;SDS011;50188;48.114;-1.388;2022-09-03T03:31:17;14.35;;;13.05;;
61764;SDS011;50188;48.114;-1.388;2022-09-03T03:33:55;11.52;;;10.52;;
61764;SDS011;50188;48.114;-1.388;2022-09-03T03:36:23;11.77;;;10.73;;
61764;SDS011;50188;48.114;-1.388;2022-09-03T03:38:52;13.30;;;12.10;;
61764;SDS011;50188;48.114;-1.388;2022-09-03T03:41:23;13.02;;;11.82;;
61764;SDS011;50188;48.114;-1.388;2022-09-03T03:43:56;18.08;;;13.88;;
61764;SDS011;50188;48.114;-1.388;2022-09-03T03:46:24;13.73;;;12.43;;
61764;SDS011;50188;48.114;-1.388;2022-09-03T03:48:52;14.02;;;12.80;;
61764;SDS011;50188;48.114;-1.388;2022-09-03T03:51:19;13.20;;;12.00;;
61764;SDS011;50188;48.114;-1.388;2022-09-03T03:53:45;13.15;;;12.00;;
61764;SDS011;50188;48.114;-1.388;2022-09-03T03:56:12;10.73;;;9.82;;
61764;SDS011;50188;48.114;-1.388;2022-09-03T03:58:39;12.05;;;10.57;;
61764;SDS011;50188;48.114;-1.388;2022-09-03T04:01:13;13.52;;;12.02;;
61764;SDS011;50188;48.114;-1.388;2022-09-03T04:03:41;12.05;;;11.02;;
61764;SDS011;50188;48.114;-1.388;2022-09-03T04:06:08;13.70;;;11.10;;
61764;SDS011;50188;48.114;-1.388;2022-09-03T04:08:37;16.27;;;12.20;;
61764;SDS011;50188;48.114;-1.388;2022-09-03T04:11:04;21.38;;;13.07;;
61764;SDS011;50188;48.114;-1.388;2022-09-03T04:13:33;14.98;;;12.23;;
61764;SDS011;50188;48.114;-1.388;2022-09-03T04:16:04;14.13;;;12.93;;
61764;SDS011;50188;48.114;-1.388;2022-09-03T04:18:32;14.68;;;13.38;;
61764;SDS011;50188;48.114;-1.388;2022-09-03T04:21:03;12.48;;;11.48;;
61764;SDS011;50188;48.114;-1.388;2022-09-03T04:23:31;14.43;;;13.15;;
61764;SDS011;50188;48.114;-1.388;2022-09-03T04:25:57;15.00;;;13.63;;
61764;SDS011;50188;48.114;-1.388;2022-09-03T04:28:23;13.23;;;12.05;;
61764;SDS011;50188;48.114;-1.388;2022-09-03T04:30:49;15.63;;;14.32;;
61764;SDS011;50188;48.114;-1.388;2022-09-03T04:33:15;15.15;;;13.65;;
61764;SDS011;50188;48.114;-1.388;2022-09-03T04:35:41;12.07;;;11.10;;
61764;SDS011;50188;48.114;-1.388;2022-09-03T04:38:07;14.65;;;13.18;;
61764;SDS011;50188;48.114;-1.388;2022-09-03T04:40:33;14.38;;;13.10;;
61764;SDS011;50188;48.114;-1.388;2022-09-03T04:42:59;14.88;;;13.60;;
61764;SDS011;50188;48.114;-1.388;2022-09-03T04:45:25;17.58;;;15.60;;
61764;SDS011;50188;48.114;-1.388;2022-09-03T04:47:59;18.05;;;16.02;;
61764;SDS011;50188;48.114;-1.388;2022-09-03T04:50:26;16.33;;;15.02;;
61764;SDS011;50188;48.114;-1.388;2022-09-03T04:52:59;16.55;;;14.85;;
61764;SDS011;50188;48.114;-1.388;2022-09-03T04:55:26;14.38;;;13.05;;
61764;SDS011;50188;48.114;-1.388;2022-09-03T04:57:52;13.55;;;12.45;;
61764;SDS011;50188;48.114;-1.388;2022-09-03T05:00:18;12.07;;;11.07;;
61764;SDS011;50188;48.114;-1.388;2022-09-03T05:02:44;14.63;;;13.43;;
61764;SDS011;50188;48.114;-1.388;2022-09-03T05:05:15;10.90;;;10.07;;
61764;SDS011;50188;48.114;-1.388;2022-09-03T05:07:42;11.63;;;10.70;;
61764;SDS011;50188;48.114;-1.388;2022-09-03T05:10:08;11.18;;;10.07;;
61764;SDS011;50188;48.114;-1.388;2022-09-03T05:12:37;10.13;;;9.18;;
61764;SDS011;50188;48.114;-1.388;2022-09-03T05:15:03;10.25;;;9.45;;
61764;SDS011;50188;48.114;-1.388;2022-09-03T05:17:30;10.95;;;9.82;;
61764;SDS011;50188;48.114;-1.388;2022-09-03T05:19:55;9.25;;;8.55;;
61764;SDS011;50188;48.114;-1.388;2022-09-03T05:22:22;11.25;;;10.27;;
61764;SDS011;50188;48.114;-1.388;2022-09-03T05:24:47;9.50;;;8.77;;
61764;SDS011;50188;48.114;-1.388;2022-09-03T05:27:14;11.63;;;10.38;;
61764;SDS011;50188;48.114;-1.388;2022-09-03T05:29:41;10.13;;;9.38;;
61764;SDS011;50188;48.114;-1.388;2022-09-03T05:32:07;9.98;;;9.15;;
61764;SDS011;50188;48.114;-1.388;2022-09-03T05:34:34;10.10;;;9.30;;
61764;SDS011;50188;48.114;-1.388;2022-09-03T05:36:59;10.98;;;10.07;;
61764;SDS011;50188;48.114;-1.388;2022-09-03T05:39:25;11.00;;;10.07;;
61764;SDS011;50188;48.114;-1.388;2022-09-03T05:41:50;13.50;;;12.43;;
61764;SDS011;50188;48.114;-1.388;2022-09-03T05:44:17;11.93;;;10.88;;
61764;SDS011;50188;48.114;-1.388;2022-09-03T05:46:43;12.00;;;11.13;;
61764;SDS011;50188;48.114;-1.388;2022-09-03T05:49:08;11.48;;;10.50;;
61764;SDS011;50188;48.114;-1.388;2022-09-03T05:51:35;12.27;;;11.18;;
61764;SDS011;50188;48.114;-1.388;2022-09-03T05:54:03;14.52;;;13.15;;
61764;SDS011;50188;48.114;-1.388;2022-09-03T05:56:29;13.57;;;12.57;;
61764;SDS011;50188;48.114;-1.388;2022-09-03T05:58:57;11.77;;;10.88;;
61764;SDS011;50188;48.114;-1.388;2022-09-03T06:01:26;12.65;;;11.63;;
61764;SDS011;50188;48.114;-1.388;2022-09-03T06:06:30;12.75;;;11.65;;
61764;SDS011;50188;48.114;-1.388;2022-09-03T06:08:58;11.85;;;10.95;;
61764;SDS011;50188;48.114;-1.388;2022-09-03T06:11:29;11.38;;;10.50;;
61764;SDS011;50188;48.114;-1.388;2022-09-03T06:13:57;11.40;;;10.40;;
61764;SDS011;50188;48.114;-1.388;2022-09-03T06:16:25;10.93;;;10.00;;
61764;SDS011;50188;48.114;-1.388;2022-09-03T06:18:51;9.93;;;9.02;;
61764;SDS011;50188;48.114;-1.388;2022-09-03T06:21:18;10.68;;;9.85;;
61764;SDS011;50188;48.114;-1.388;2022-09-03T06:23:48;10.25;;;9.30;;
61764;SDS011;50188;48.114;-1.388;2022-09-03T06:26:15;11.98;;;11.07;;
61764;SDS011;50188;48.114;-1.388;2022-09-03T06:28:42;10.45;;;9.65;;
61764;SDS011;50188;48.114;-1.388;2022-09-03T06:31:09;11.30;;;10.38;;
61764;SDS011;50188;48.114;-1.388;2022-09-03T06:33:37;11.93;;;10.97;;
61764;SDS011;50188;48.114;-1.388;2022-09-03T06:36:05;11.20;;;10.30;;
61764;SDS011;50188;48.114;-1.388;2022-09-03T06:38:34;11.35;;;10.38;;
61764;SDS011;50188;48.114;-1.388;2022-09-03T06:41:01;13.77;;;12.10;;
61764;SDS011;50188;48.114;-1.388;2022-09-03T06:43:32;13.70;;;12.57;;
61764;SDS011;50188;48.114;-1.388;2022-09-03T06:46:00;14.75;;;13.55;;
61764;SDS011;50188;48.114;-1.388;2022-09-03T06:48:38;13.27;;;12.13;;
61764;SDS011;50188;48.114;-1.388;2022-09-03T06:51:05;13.30;;;12.10;;
61764;SDS011;50188;48.114;-1.388;2022-09-03T06:53:33;12.70;;;11.65;;
61764;SDS011;50188;48.114;-1.388;2022-09-03T06:56:02;13.20;;;12.20;;
61764;SDS011;50188;48.114;-1.388;2022-09-03T06:58:30;15.83;;;14.37;;
61764;SDS011;50188;48.114;-1.388;2022-09-03T07:01:00;15.40;;;14.18;;
61764;SDS011;50188;48.114;-1.388;2022-09-03T07:03:27;14.38;;;13.23;;
61764;SDS011;50188;48.114;-1.388;2022-09-03T07:05:58;19.52;;;17.63;;
61764;SDS011;50188;48.114;-1.388;2022-09-03T07:08:25;20.55;;;18.75;;
61764;SDS011;50188;48.114;-1.388;2022-09-03T07:10:51;19.75;;;18.10;;
61764;SDS011;50188;48.114;-1.388;2022-09-03T07:13:17;21.33;;;19.38;;
61764;SDS011;50188;48.114;-1.388;2022-09-03T07:15:43;20.90;;;19.05;;
61764;SDS011;50188;48.114;-1.388;2022-09-03T07:18:08;20.83;;;19.02;;
61764;SDS011;50188;48.114;-1.388;2022-09-03T07:20:34;20.40;;;18.52;;
61764;SDS011;50188;48.114;-1.388;2022-09-03T07:23:00;20.60;;;18.70;;
61764;SDS011;50188;48.114;-1.388;2022-09-03T07:25:25;22.85;;;20.75;;
61764;SDS011;50188;48.114;-1.388;2022-09-03T07:27:52;22.45;;;20.23;;
61764;SDS011;50188;48.114;-1.388;2022-09-03T07:30:17;22.02;;;20.00;;
61764;SDS011;50188;48.114;-1.388;2022-09-03T07:32:46;20.23;;;18.52;;
61764;SDS011;50188;48.114;-1.388;2022-09-03T07:35:13;26.48;;;23.75;;
61764;SDS011;50188;48.114;-1.388;2022-09-03T07:37:39;20.67;;;18.98;;
61764;SDS011;50188;48.114;-1.388;2022-09-03T07:40:07;20.15;;;18.35;;
61764;SDS011;50188;48.114;-1.388;2022-09-03T07:42:34;22.05;;;20.23;;
61764;SDS011;50188;48.114;-1.388;2022-09-03T07:45:02;21.30;;;19.58;;
61764;SDS011;50188;48.114;-1.388;2022-09-03T07:47:33;22.83;;;20.73;;
61764;SDS011;50188;48.114;-1.388;2022-09-03T07:49:59;24.70;;;22.50;;
61764;SDS011;50188;48.114;-1.388;2022-09-03T07:52:25;26.10;;;19.92;;
61764;SDS011;50188;48.114;-1.388;2022-09-03T07:54:52;24.60;;;22.50;;
61764;SDS011;50188;48.114;-1.388;2022-09-03T07:57:17;27.92;;;25.30;;
61764;SDS011;50188;48.114;-1.388;2022-09-03T07:59:43;27.05;;;24.65;;
61764;SDS011;50188;48.114;-1.388;2022-09-03T08:02:08;27.05;;;23.20;;
61764;SDS011;50188;48.114;-1.388;2022-09-03T08:04:34;27.13;;;24.67;;
61764;SDS011;50188;48.114;-1.388;2022-09-03T08:07:00;25.63;;;23.02;;
61764;SDS011;50188;48.114;-1.388;2022-09-03T08:09:25;21.83;;;19.90;;
61764;SDS011;50188;48.114;-1.388;2022-09-03T08:11:51;21.38;;;19.38;;
61764;SDS011;50188;48.114;-1.388;2022-09-03T08:14:17;23.88;;;21.33;;
61764;SDS011;50188;48.114;-1.388;2022-09-03T08:16:44;24.70;;;22.38;;
61764;SDS011;50188;48.114;-1.388;2022-09-03T08:19:14;22.27;;;20.27;;
61764;SDS011;50188;48.114;-1.388;2022-09-03T08:21:42;23.67;;;21.40;;
61764;SDS011;50188;48.114;-1.388;2022-09-03T08:24:09;22.00;;;20.02;;
61764;SDS011;50188;48.114;-1.388;2022-09-03T08:26:36;24.30;;;21.90;;
61764;SDS011;50188;48.114;-1.388;2022-09-03T08:29:06;23.77;;;20.63;;
61764;SDS011;50188;48.114;-1.388;2022-09-03T08:31:33;22.42;;;20.33;;
61764;SDS011;50188;48.114;-1.388;2022-09-03T08:34:01;21.10;;;19.33;;
61764;SDS011;50188;48.114;-1.388;2022-09-03T08:36:30;18.45;;;16.70;;
61764;SDS011;50188;48.114;-1.388;2022-09-03T08:38:58;18.83;;;17.15;;
61764;SDS011;50188;48.114;-1.388;2022-09-03T08:47:25;17.40;;;15.90;;
61764;SDS011;50188;48.114;-1.388;2022-09-03T08:53:01;15.27;;;13.98;;
61764;SDS011;50188;48.114;-1.388;2022-09-03T08:55:50;15.00;;;13.60;;
61764;SDS011;50188;48.114;-1.388;2022-09-03T08:58:24;16.65;;;15.13;;
61764;SDS011;50188;48.114;-1.388;2022-09-03T09:00:56;18.88;;;17.00;;
61764;SDS011;50188;48.114;-1.388;2022-09-03T09:09:32;14.23;;;13.02;;
61764;SDS011;50188;48.114;-1.388;2022-09-03T09:12:40;13.45;;;12.05;;
61764;SDS011;50188;48.114;-1.388;2022-09-03T09:18:43;15.32;;;11.98;;
61764;SDS011;50188;48.114;-1.388;2022-09-03T09:21:26;14.93;;;13.60;;
61764;SDS011;50188;48.114;-1.388;2022-09-03T09:23:56;14.95;;;13.68;;
61764;SDS011;50188;48.114;-1.388;2022-09-03T09:26:28;15.20;;;13.63;;
61764;SDS011;50188;48.114;-1.388;2022-09-03T09:28:56;16.10;;;14.40;;
61764;SDS011;50188;48.114;-1.388;2022-09-03T09:31:26;16.60;;;14.90;;
61764;SDS011;50188;48.114;-1.388;2022-09-03T09:33:54;16.77;;;14.57;;
61764;SDS011;50188;48.114;-1.388;2022-09-03T09:36:26;15.02;;;13.63;;
61764;SDS011;50188;48.114;-1.388;2022-09-03T09:38:52;16.45;;;14.98;;
61764;SDS011;50188;48.114;-1.388;2022-09-03T09:41:18;14.70;;;13.23;;
61764;SDS011;50188;48.114;-1.388;2022-09-03T09:43:47;15.95;;;14.40;;
61764;SDS011;50188;48.114;-1.388;2022-09-03T09:46:24;25.08;;;15.70;;
61764;SDS011;50188;48.114;-1.388;2022-09-03T09:48:56;17.92;;;16.23;;
61764;SDS011;50188;48.114;-1.388;2022-09-03T09:51:23;15.73;;;13.85;;
61764;SDS011;50188;48.114;-1.388;2022-09-03T09:54:02;17.10;;;15.40;;
61764;SDS011;50188;48.114;-1.388;2022-09-03T09:56:36;14.07;;;12.75;;
61764;SDS011;50188;48.114;-1.388;2022-09-03T09:59:03;13.77;;;12.63;;
61764;SDS011;50188;48.114;-1.388;2022-09-03T10:01:35;14.82;;;13.50;;
61764;SDS011;50188;48.114;-1.388;2022-09-03T10:04:10;13.48;;;12.18;;
61764;SDS011;50188;48.114;-1.388;2022-09-03T10:06:52;18.83;;;12.90;;
61764;SDS011;50188;48.114;-1.388;2022-09-03T10:09:21;14.75;;;10.85;;
61764;SDS011;50188;48.114;-1.388;2022-09-03T10:11:50;11.65;;;10.60;;
61764;SDS011;50188;48.114;-1.388;2022-09-03T10:14:41;11.40;;;10.40;;
61764;SDS011;50188;48.114;-1.388;2022-09-03T10:17:39;12.55;;;11.32;;
61764;SDS011;50188;48.114;-1.388;2022-09-03T10:20:25;12.57;;;10.57;;
61764;SDS011;50188;48.114;-1.388;2022-09-03T10:23:09;12.15;;;10.95;;
61764;SDS011;50188;48.114;-1.388;2022-09-03T10:26:01;13.48;;;12.07;;
61764;SDS011;50188;48.114;-1.388;2022-09-03T10:28:39;10.82;;;9.82;;
61764;SDS011;50188;48.114;-1.388;2022-09-03T10:34:08;10.50;;;9.40;;
61764;SDS011;50188;48.114;-1.388;2022-09-03T10:40:00;13.35;;;7.43;;
61764;SDS011;50188;48.114;-1.388;2022-09-03T10:42:49;11.18;;;7.68;;
61764;SDS011;50188;48.114;-1.388;2022-09-03T10:51:41;7.50;;;6.75;;
61764;SDS011;50188;48.114;-1.388;2022-09-03T10:54:20;7.60;;;6.10;;
61764;SDS011;50188;48.114;-1.388;2022-09-03T10:57:20;7.78;;;6.40;;
61764;SDS011;50188;48.114;-1.388;2022-09-03T11:00:04;8.05;;;6.25;;
61764;SDS011;50188;48.114;-1.388;2022-09-03T11:05:40;6.53;;;5.82;;
61764;SDS011;50188;48.114;-1.388;2022-09-03T11:08:27;6.43;;;4.90;;
61764;SDS011;50188;48.114;-1.388;2022-09-03T11:11:07;5.65;;;5.05;;
61764;SDS011;50188;48.114;-1.388;2022-09-03T11:13:43;6.40;;;5.00;;
61764;SDS011;50188;48.114;-1.388;2022-09-03T11:16:17;6.10;;;5.03;;
61764;SDS011;50188;48.114;-1.388;2022-09-03T11:18:50;8.70;;;4.35;;
61764;SDS011;50188;48.114;-1.388;2022-09-03T11:21:37;5.03;;;3.75;;
61764;SDS011;50188;48.114;-1.388;2022-09-03T11:24:22;5.13;;;3.53;;
61764;SDS011;50188;48.114;-1.388;2022-09-03T11:26:55;5.90;;;4.25;;
61764;SDS011;50188;48.114;-1.388;2022-09-03T11:29:39;7.97;;;4.45;;
61764;SDS011;50188;48.114;-1.388;2022-09-03T11:32:30;5.43;;;4.65;;
61764;SDS011;50188;48.114;-1.388;2022-09-03T11:35:15;5.88;;;3.85;;
61764;SDS011;50188;48.114;-1.388;2022-09-03T11:37:52;6.65;;;4.43;;
61764;SDS011;50188;48.114;-1.388;2022-09-03T11:40:39;6.25;;;4.22;;
61764;SDS011;50188;48.114;-1.388;2022-09-03T11:43:29;7.70;;;4.22;;
61764;SDS011;50188;48.114;-1.388;2022-09-03T11:48:53;6.57;;;4.03;;
61764;SDS011;50188;48.114;-1.388;2022-09-03T11:51:31;5.03;;;4.32;;
61764;SDS011;50188;48.114;-1.388;2022-09-03T11:54:05;11.23;;;4.53;;
61764;SDS011;50188;48.114;-1.388;2022-09-03T11:56:50;4.88;;;3.78;;
61764;SDS011;50188;48.114;-1.388;2022-09-03T11:59:28;5.05;;;4.55;;
61764;SDS011;50188;48.114;-1.388;2022-09-03T12:02:01;7.90;;;4.70;;
61764;SDS011;50188;48.114;-1.388;2022-09-03T12:04:39;5.05;;;4.45;;
61764;SDS011;50188;48.114;-1.388;2022-09-03T12:07:24;6.57;;;4.63;;
61764;SDS011;50188;48.114;-1.388;2022-09-03T12:10:26;4.53;;;3.10;;
61764;SDS011;50188;48.114;-1.388;2022-09-03T12:16:22;5.18;;;3.50;;
61764;SDS011;50188;48.114;-1.388;2022-09-03T12:19:14;8.25;;;4.90;;
61764;SDS011;50188;48.114;-1.388;2022-09-03T12:21:59;7.88;;;3.42;;
61764;SDS011;50188;48.114;-1.388;2022-09-03T12:24:27;5.82;;;4.57;;
61764;SDS011;50188;48.114;-1.388;2022-09-03T12:26:56;3.95;;;3.55;;
61764;SDS011;50188;48.114;-1.388;2022-09-03T12:29:27;5.13;;;3.65;;
61764;SDS011;50188;48.114;-1.388;2022-09-03T12:31:55;4.10;;;3.50;;
61764;SDS011;50188;48.114;-1.388;2022-09-03T12:34:30;6.70;;;3.90;;
61764;SDS011;50188;48.114;-1.388;2022-09-03T12:36:56;6.00;;;4.32;;
61764;SDS011;50188;48.114;-1.388;2022-09-03T12:39:23;7.72;;;4.63;;
61764;SDS011;50188;48.114;-1.388;2022-09-03T12:41:58;5.70;;;3.67;;
61764;SDS011;50188;48.114;-1.388;2022-09-03T12:44:39;6.72;;;3.78;;
61764;SDS011;50188;48.114;-1.388;2022-09-03T12:47:09;4.68;;;3.88;;
61764;SDS011;50188;48.114;-1.388;2022-09-03T12:49:41;7.70;;;4.45;;
61764;SDS011;50188;48.114;-1.388;2022-09-03T12:54:58;4.33;;;3.50;;
61764;SDS011;50188;48.114;-1.388;2022-09-03T12:57:46;5.75;;;3.53;;
61764;SDS011;50188;48.114;-1.388;2022-09-03T13:00:17;7.03;;;3.70;;
61764;SDS011;50188;48.114;-1.388;2022-09-03T13:02:45;4.40;;;4.00;;
61764;SDS011;50188;48.114;-1.388;2022-09-03T13:05:42;7.40;;;3.85;;
61764;SDS011;50188;48.114;-1.388;2022-09-03T13:08:26;12.40;;;4.10;;
61764;SDS011;50188;48.114;-1.388;2022-09-03T13:10:57;3.72;;;3.33;;
61764;SDS011;50188;48.114;-1.388;2022-09-03T13:13:25;5.57;;;4.25;;
61764;SDS011;50188;48.114;-1.388;2022-09-03T13:22:14;6.47;;;3.65;;
61764;SDS011;50188;48.114;-1.388;2022-09-03T13:24:53;7.25;;;2.75;;
61764;SDS011;50188;48.114;-1.388;2022-09-03T13:27:58;4.80;;;3.30;;
61764;SDS011;50188;48.114;-1.388;2022-09-03T13:30:48;6.20;;;3.47;;
61764;SDS011;50188;48.114;-1.388;2022-09-03T13:33:27;4.38;;;3.10;;
61764;SDS011;50188;48.114;-1.388;2022-09-03T13:38:54;5.75;;;3.47;;
61764;SDS011;50188;48.114;-1.388;2022-09-03T13:41:37;4.93;;;3.53;;
61764;SDS011;50188;48.114;-1.388;2022-09-03T13:44:17;3.47;;;2.30;;
61764;SDS011;50188;48.114;-1.388;2022-09-03T13:47:07;4.32;;;3.35;;
61764;SDS011;50188;48.114;-1.388;2022-09-03T13:49:51;5.30;;;2.97;;
61764;SDS011;50188;48.114;-1.388;2022-09-03T13:52:50;4.00;;;3.47;;
61764;SDS011;50188;48.114;-1.388;2022-09-03T13:55:41;5.70;;;2.97;;
61764;SDS011;50188;48.114;-1.388;2022-09-03T13:58:20;4.75;;;2.63;;
61764;SDS011;50188;48.114;-1.388;2022-09-03T14:03:54;3.97;;;2.67;;
61764;SDS011;50188;48.114;-1.388;2022-09-03T14:12:13;5.25;;;2.70;;
61764;SDS011;50188;48.114;-1.388;2022-09-03T14:14:48;6.47;;;3.67;;
61764;SDS011;50188;48.114;-1.388;2022-09-03T14:17:31;4.45;;;2.70;;
61764;SDS011;50188;48.114;-1.388;2022-09-03T14:20:25;8.63;;;2.72;;
61764;SDS011;50188;48.114;-1.388;2022-09-03T14:23:00;12.73;;;3.40;;
61764;SDS011;50188;48.114;-1.388;2022-09-03T14:25:34;6.85;;;2.60;;
61764;SDS011;50188;48.114;-1.388;2022-09-03T14:28:13;3.08;;;2.10;;
61764;SDS011;50188;48.114;-1.388;2022-09-03T14:30:53;6.78;;;2.60;;
61764;SDS011;50188;48.114;-1.388;2022-09-03T14:33:54;4.93;;;2.92;;
61764;SDS011;50188;48.114;-1.388;2022-09-03T14:36:34;4.80;;;2.85;;
61764;SDS011;50188;48.114;-1.388;2022-09-03T14:39:16;2.55;;;2.20;;
61764;SDS011;50188;48.114;-1.388;2022-09-03T14:42:08;5.15;;;2.55;;
61764;SDS011;50188;48.114;-1.388;2022-09-03T14:47:46;6.72;;;2.25;;
61764;SDS011;50188;48.114;-1.388;2022-09-03T14:50:47;7.25;;;3.40;;
61764;SDS011;50188;48.114;-1.388;2022-09-03T14:59:33;5.85;;;2.60;;
61764;SDS011;50188;48.114;-1.388;2022-09-03T15:11:14;5.10;;;2.28;;
61764;SDS011;50188;48.114;-1.388;2022-09-03T15:16:42;4.40;;;2.00;;
61764;SDS011;50188;48.114;-1.388;2022-09-03T15:22:26;2.85;;;2.13;;
61764;SDS011;50188;48.114;-1.388;2022-09-03T15:25:15;2.72;;;1.42;;
61764;SDS011;50188;48.114;-1.388;2022-09-03T15:28:07;2.60;;;2.05;;
61764;SDS011;50188;48.114;-1.388;2022-09-03T15:30:40;3.22;;;2.38;;
61764;SDS011;50188;48.114;-1.388;2022-09-03T15:33:26;8.77;;;2.78;;
61764;SDS011;50188;48.114;-1.388;2022-09-03T15:41:51;3.53;;;1.77;;
61764;SDS011;50188;48.114;-1.388;2022-09-03T15:44:21;8.45;;;2.40;;
61764;SDS011;50188;48.114;-1.388;2022-09-03T15:46:54;4.03;;;2.55;;
61764;SDS011;50188;48.114;-1.388;2022-09-03T15:52:31;8.73;;;1.90;;
61764;SDS011;50188;48.114;-1.388;2022-09-03T15:55:30;3.50;;;1.60;;
61764;SDS011;50188;48.114;-1.388;2022-09-03T16:01:00;4.00;;;2.03;;
61764;SDS011;50188;48.114;-1.388;2022-09-03T16:03:33;3.88;;;1.98;;
61764;SDS011;50188;48.114;-1.388;2022-09-03T16:06:24;4.85;;;1.75;;
61764;SDS011;50188;48.114;-1.388;2022-09-03T16:09:04;2.22;;;1.83;;
61764;SDS011;50188;48.114;-1.388;2022-09-03T16:11:51;1.35;;;1.25;;
61764;SDS011;50188;48.114;-1.388;2022-09-03T16:14:30;4.13;;;2.28;;
61764;SDS011;50188;48.114;-1.388;2022-09-03T16:17:20;7.75;;;1.90;;
61764;SDS011;50188;48.114;-1.388;2022-09-03T16:19:56;4.93;;;2.42;;
61764;SDS011;50188;48.114;-1.388;2022-09-03T16:22:29;12.07;;;2.85;;
61764;SDS011;50188;48.114;-1.388;2022-09-03T16:25:01;3.42;;;1.85;;
61764;SDS011;50188;48.114;-1.388;2022-09-03T16:30:21;5.93;;;2.17;;
61764;SDS011;50188;48.114;-1.388;2022-09-03T16:33:11;1.90;;;1.80;;
61764;SDS011;50188;48.114;-1.388;2022-09-03T16:39:12;4.03;;;2.40;;
61764;SDS011;50188;48.114;-1.388;2022-09-03T16:42:03;2.15;;;1.30;;
61764;SDS011;50188;48.114;-1.388;2022-09-03T16:45:08;2.78;;;1.65;;
61764;SDS011;50188;48.114;-1.388;2022-09-03T16:48:12;4.35;;;2.13;;
61764;SDS011;50188;48.114;-1.388;2022-09-03T16:51:07;6.20;;;1.80;;
61764;SDS011;50188;48.114;-1.388;2022-09-03T16:53:56;4.75;;;2.40;;
61764;SDS011;50188;48.114;-1.388;2022-09-03T16:56:49;4.18;;;2.10;;
61764;SDS011;50188;48.114;-1.388;2022-09-03T16:59:35;2.65;;;1.73;;
61764;SDS011;50188;48.114;-1.388;2022-09-03T17:02:29;1.98;;;1.67;;
61764;SDS011;50188;48.114;-1.388;2022-09-03T17:08:25;2.38;;;2.17;;